Time;durP1;ratioP1;P1;durP2;ratioP2;P2;SDS_P1;SDS_P2;PMS_P1;PMS_P2;Temp;Humidity;BMP_temperature;BMP_pressure;BME280_temperature;BME280_humidity;BME280_pressure;Samples;Min_cycle;Max_cycle;Signal;HPM_P1;HPM_P2
2021/10/05 00:02:03;;;;;;;7.80;7.30;;;11.60;99.90;;;;;;4971722;28;20055;-73
2021/10/05 00:04:30;;;;;;;8.00;7.30;;;11.60;99.90;;;;;;4972189;28;20051;-73
2021/10/05 00:06:56;;;;;;;7.22;6.72;;;11.60;99.90;;;;;;4972980;28;20030;-73
2021/10/05 00:09:22;;;;;;;7.60;7.20;;;11.50;99.90;;;;;;4973000;28;20030;-73
2021/10/05 00:11:48;;;;;;;9.57;8.88;;;11.60;99.90;;;;;;4972534;28;20037;-73
2021/10/05 00:14:14;;;;;;;8.45;7.95;;;11.60;99.90;;;;;;4972285;28;20472;-73
2021/10/05 00:16:41;;;;;;;8.60;7.97;;;11.70;99.90;;;;;;4971597;28;20055;-73
2021/10/05 00:19:07;;;;;;;9.50;8.85;;;11.60;99.90;;;;;;4973457;28;20395;-73
2021/10/05 00:21:33;;;;;;;8.90;8.18;;;11.60;99.90;;;;;;4972606;28;20027;-73
2021/10/05 00:23:59;;;;;;;8.38;7.80;;;11.50;99.90;;;;;;4973451;28;20395;-73
2021/10/05 00:26:25;;;;;;;7.50;6.85;;;11.40;99.90;;;;;;4972673;28;20041;-73
2021/10/05 00:28:52;;;;;;;6.80;6.30;;;11.40;99.90;;;;;;4972730;28;20122;-72
2021/10/05 00:31:18;;;;;;;7.43;6.78;;;11.40;99.90;;;;;;4971895;28;20042;-73
2021/10/05 00:33:44;;;;;;;11.43;7.47;;;11.40;99.90;;;;;;4974248;28;20452;-73
2021/10/05 00:36:10;;;;;;;9.07;8.48;;;11.30;99.90;;;;;;4973103;28;20047;-74
2021/10/05 00:38:36;;;;;;;7.72;7.22;;;11.30;99.90;;;;;;4973078;28;20031;-73
2021/10/05 00:41:03;;;;;;;8.68;8.07;;;11.40;99.90;;;;;;4973154;28;20031;-73
2021/10/05 00:43:30;;;;;;;10.88;8.05;;;11.40;99.90;;;;;;4971696;28;20047;-74
2021/10/05 00:45:56;;;;;;;9.63;8.82;;;11.40;99.90;;;;;;4972636;28;20035;-73
2021/10/05 00:48:22;;;;;;;10.98;10.10;;;11.40;99.90;;;;;;4972035;28;20027;-73
2021/10/05 00:50:48;;;;;;;11.23;10.00;;;11.30;99.90;;;;;;4972809;28;20030;-73
2021/10/05 00:53:15;;;;;;;12.85;12.05;;;11.40;99.90;;;;;;4972055;28;20039;-74
2021/10/05 00:55:41;;;;;;;13.40;12.60;;;11.40;99.90;;;;;;4972273;28;20507;-74
2021/10/05 00:58:08;;;;;;;13.88;12.65;;;11.40;99.90;;;;;;4972606;28;20468;-74
2021/10/05 01:00:37;;;;;;;13.20;12.05;;;11.40;99.90;;;;;;4972235;28;20031;-73
2021/10/05 01:03:04;;;;;;;14.20;13.30;;;11.40;99.90;;;;;;4972892;28;20047;-73
2021/10/05 01:05:31;;;;;;;13.85;13.05;;;11.40;99.90;;;;;;4971775;28;20051;-74
2021/10/05 01:08:00;;;;;;;14.93;14.00;;;11.40;99.90;;;;;;4972668;28;20043;-74
2021/10/05 01:10:28;;;;;;;15.10;14.15;;;11.50;99.90;;;;;;4972373;28;20031;-73
2021/10/05 01:12:54;;;;;;;13.90;12.80;;;11.40;99.90;;;;;;4972674;28;20027;-74
2021/10/05 01:15:26;;;;;;;15.48;13.98;;;11.40;99.90;;;;;;4972083;28;20034;-74
2021/10/05 01:17:53;;;;;;;14.70;13.43;;;11.40;99.90;;;;;;4971983;28;20031;-75
2021/10/05 01:20:20;;;;;;;14.05;12.85;;;11.30;99.90;;;;;;4971669;28;20030;-75
2021/10/05 01:22:47;;;;;;;11.93;11.23;;;11.30;99.90;;;;;;4972535;28;20035;-75
2021/10/05 01:25:15;;;;;;;12.70;11.82;;;11.30;99.90;;;;;;4974553;28;20034;-76
2021/10/05 01:27:45;;;;;;;12.45;11.65;;;11.30;99.90;;;;;;4958519;28;20049;-75
2021/10/05 01:30:12;;;;;;;11.45;10.75;;;11.30;99.90;;;;;;4975512;28;20033;-75
2021/10/05 01:32:38;;;;;;;11.10;10.40;;;11.30;99.90;;;;;;4975726;28;20053;-75
2021/10/05 01:35:05;;;;;;;12.65;11.85;;;11.30;99.90;;;;;;4975804;28;20049;-75
2021/10/05 01:37:32;;;;;;;12.13;11.32;;;11.30;99.90;;;;;;4975099;28;20042;-76
2021/10/05 01:39:59;;;;;;;12.52;11.63;;;11.30;99.90;;;;;;4975916;28;20027;-75
2021/10/05 01:42:25;;;;;;;13.43;12.60;;;11.30;99.90;;;;;;4973762;28;20042;-76
2021/10/05 01:44:51;;;;;;;15.15;14.15;;;11.30;99.90;;;;;;4975199;28;20053;-75
2021/10/05 01:47:19;;;;;;;14.43;13.45;;;11.40;99.90;;;;;;4957708;28;20038;-75
2021/10/05 01:49:45;;;;;;;15.88;14.75;;;11.40;99.90;;;;;;4975913;28;20039;-74
2021/10/05 01:52:11;;;;;;;14.68;13.57;;;11.40;99.90;;;;;;4973307;28;20049;-75
2021/10/05 01:54:37;;;;;;;13.43;12.43;;;11.40;99.90;;;;;;4975072;28;20043;-75
2021/10/05 01:57:04;;;;;;;12.88;11.88;;;11.30;99.90;;;;;;4975555;28;20134;-75
2021/10/05 01:59:30;;;;;;;13.13;12.25;;;11.30;99.90;;;;;;4974855;28;20035;-75
2021/10/05 02:01:57;;;;;;;13.85;12.95;;;11.30;99.90;;;;;;4975185;28;20062;-75
2021/10/05 02:04:23;;;;;;;14.27;13.38;;;11.30;99.90;;;;;;4974639;28;20411;-76
2021/10/05 02:06:49;;;;;;;15.20;14.30;;;11.30;99.90;;;;;;4975039;28;20022;-76
2021/10/05 02:09:15;;;;;;;16.63;15.52;;;11.30;99.90;;;;;;4975115;28;20030;-75
2021/10/05 02:11:42;;;;;;;15.10;13.65;;;11.30;99.90;;;;;;4957874;28;20035;-76
2021/10/05 02:14:08;;;;;;;16.27;15.27;;;11.30;99.90;;;;;;4973878;28;20046;-76
2021/10/05 02:16:35;;;;;;;15.80;14.63;;;11.20;99.90;;;;;;4974670;28;20035;-77
2021/10/05 02:19:03;;;;;;;16.42;15.32;;;11.30;99.90;;;;;;4974900;28;20391;-76
2021/10/05 02:21:29;;;;;;;15.23;14.23;;;11.30;99.90;;;;;;4974556;28;20035;-76
2021/10/05 02:26:41;;;;;;;14.80;13.75;;;11.20;99.90;;;;;;4975921;28;20047;-76
2021/10/05 02:29:07;;;;;;;16.50;15.20;;;11.20;99.90;;;;;;4974606;28;20047;-76
2021/10/05 02:31:33;;;;;;;15.38;14.48;;;11.20;99.90;;;;;;4974438;28;20365;-76
2021/10/05 02:33:59;;;;;;;14.82;13.82;;;11.20;99.90;;;;;;4974241;28;20042;-77
2021/10/05 02:36:26;;;;;;;18.38;16.67;;;11.20;99.90;;;;;;4973912;28;20046;-77
2021/10/05 02:38:52;;;;;;;17.08;16.05;;;11.20;99.90;;;;;;4973334;28;20050;-77
2021/10/05 02:41:19;;;;;;;15.05;13.95;;;11.30;99.90;;;;;;4974127;28;20054;-77
2021/10/05 02:43:45;;;;;;;17.52;16.33;;;11.20;99.90;;;;;;4974463;28;20038;-77
2021/10/05 02:46:11;;;;;;;15.13;14.23;;;11.10;99.90;;;;;;4974226;28;20037;-77
2021/10/05 02:48:37;;;;;;;15.25;14.13;;;11.10;99.90;;;;;;4974275;28;20035;-77
2021/10/05 02:51:04;;;;;;;14.70;13.70;;;11.10;99.90;;;;;;4974178;28;20034;-77
2021/10/05 02:53:30;;;;;;;14.25;13.18;;;11.10;99.90;;;;;;4973806;28;20035;-77
2021/10/05 02:55:56;;;;;;;14.05;13.15;;;11.00;99.90;;;;;;4976161;28;20038;-76
2021/10/05 02:58:22;;;;;;;14.10;13.25;;;11.00;99.90;;;;;;4976558;28;20046;-77
2021/10/05 03:00:48;;;;;;;15.52;14.43;;;11.10;99.90;;;;;;4976200;28;20022;-77
2021/10/05 03:03:15;;;;;;;17.77;16.20;;;11.10;99.90;;;;;;4975155;28;20055;-75
2021/10/05 03:05:41;;;;;;;18.08;16.45;;;11.10;99.90;;;;;;4974292;28;20062;-77
2021/10/05 03:08:07;;;;;;;16.38;15.27;;;11.10;99.90;;;;;;4974228;28;20039;-76
2021/10/05 03:10:35;;;;;;;15.77;14.75;;;11.10;99.90;;;;;;4956424;28;20031;-76
2021/10/05 03:13:02;;;;;;;17.08;15.98;;;11.10;99.90;;;;;;4974374;28;20037;-76
2021/10/05 03:15:28;;;;;;;18.40;17.15;;;11.10;99.90;;;;;;4973772;28;20054;-76
2021/10/05 03:17:55;;;;;;;19.25;17.95;;;11.10;99.90;;;;;;4974117;28;20034;-77
2021/10/05 03:20:21;;;;;;;19.55;18.25;;;11.10;99.90;;;;;;4973257;28;20039;-76
2021/10/05 03:22:47;;;;;;;20.55;19.25;;;11.10;99.90;;;;;;4972646;28;20035;-77
2021/10/05 03:25:13;;;;;;;21.67;20.38;;;11.10;99.90;;;;;;4971909;28;20057;-76
2021/10/05 03:27:40;;;;;;;24.08;22.30;;;11.10;99.90;;;;;;4973681;28;20023;-76
2021/10/05 03:30:09;;;;;;;23.65;22.23;;;11.20;99.90;;;;;;4974058;28;20034;-77
2021/10/05 03:32:36;;;;;;;25.90;24.27;;;11.30;99.90;;;;;;4973525;28;20053;-77
2021/10/05 03:35:03;;;;;;;23.80;22.35;;;11.30;99.90;;;;;;4974580;28;20050;-76
2021/10/05 03:37:29;;;;;;;23.40;21.90;;;11.30;99.90;;;;;;4978330;28;20039;-76
2021/10/05 03:39:55;;;;;;;23.67;22.15;;;11.30;99.90;;;;;;4974048;28;20047;-75
2021/10/05 03:42:22;;;;;;;22.88;21.25;;;11.30;99.90;;;;;;4972580;28;20463;-75
2021/10/05 03:44:48;;;;;;;21.83;20.42;;;11.30;99.90;;;;;;4973279;28;20038;-75
2021/10/05 03:47:14;;;;;;;22.10;20.48;;;11.20;99.90;;;;;;4972195;28;20041;-76
2021/10/05 03:49:40;;;;;;;23.17;21.58;;;11.20;99.90;;;;;;4967370;28;20034;-76
2021/10/05 03:52:07;;;;;;;23.30;21.73;;;11.30;99.90;;;;;;4971209;28;20042;-76
2021/10/05 03:54:34;;;;;;;22.70;21.27;;;11.30;99.90;;;;;;4972507;28;20239;-76
2021/10/05 03:57:02;;;;;;;24.63;22.95;;;11.40;99.90;;;;;;4973235;28;20053;-76
2021/10/05 03:59:28;;;;;;;26.58;24.83;;;11.40;99.90;;;;;;4972958;28;20099;-76
2021/10/05 04:01:54;;;;;;;25.58;23.88;;;11.50;99.90;;;;;;4972965;28;20047;-76
2021/10/05 04:04:20;;;;;;;25.33;23.73;;;11.50;99.90;;;;;;4972738;28;20050;-76
2021/10/05 04:06:47;;;;;;;25.60;23.85;;;11.50;99.90;;;;;;4955804;28;20043;-76
2021/10/05 04:09:13;;;;;;;24.60;22.80;;;11.40;99.90;;;;;;4972888;28;20041;-76
2021/10/05 04:11:39;;;;;;;25.40;23.75;;;11.50;99.90;;;;;;4973205;28;20519;-76
2021/10/05 04:14:05;;;;;;;27.48;25.58;;;11.40;99.90;;;;;;4968978;28;20042;-76
2021/10/05 04:16:32;;;;;;;24.50;23.00;;;11.50;99.90;;;;;;4972898;28;20042;-76
2021/10/05 04:18:58;;;;;;;24.27;22.67;;;11.50;99.90;;;;;;4972709;28;20058;-76
2021/10/05 04:21:24;;;;;;;24.35;22.60;;;11.40;99.90;;;;;;4972793;28;20365;-76
2021/10/05 04:23:50;;;;;;;24.75;23.15;;;11.40;99.90;;;;;;4971010;28;20073;-76
2021/10/05 04:26:16;;;;;;;25.52;23.90;;;11.40;99.90;;;;;;4975020;28;20360;-76
2021/10/05 04:28:43;;;;;;;25.08;23.48;;;11.40;99.90;;;;;;4972499;28;20515;-76
2021/10/05 04:31:09;;;;;;;24.08;22.50;;;11.30;99.90;;;;;;4955601;28;20472;-76
2021/10/05 04:33:35;;;;;;;23.50;22.10;;;11.40;99.90;;;;;;4940014;28;20039;-76
2021/10/05 04:36:02;;;;;;;25.52;23.80;;;11.40;99.90;;;;;;4955735;28;20389;-76
2021/10/05 04:38:29;;;;;;;24.05;22.55;;;11.40;99.90;;;;;;4971754;28;20082;-76
2021/10/05 04:40:55;;;;;;;25.00;23.23;;;11.40;99.90;;;;;;4972702;28;20034;-76
2021/10/05 04:43:21;;;;;;;24.70;23.20;;;11.40;99.90;;;;;;4972301;28;20027;-76
2021/10/05 04:45:47;;;;;;;27.33;24.65;;;11.40;99.90;;;;;;4955397;28;20035;-76
2021/10/05 04:48:13;;;;;;;25.60;23.83;;;11.40;99.90;;;;;;4973072;28;20062;-77
2021/10/05 04:50:40;;;;;;;24.80;23.05;;;11.40;99.90;;;;;;4973140;28;20042;-78
2021/10/05 04:53:06;;;;;;;24.05;22.40;;;11.30;99.90;;;;;;4972775;28;20437;-79
2021/10/05 04:55:32;;;;;;;22.48;20.90;;;11.30;99.90;;;;;;4973482;28;20138;-78
2021/10/05 04:58:02;;;;;;;22.42;21.02;;;11.30;99.90;;;;;;4955550;28;20046;-79
2021/10/05 05:00:28;;;;;;;23.08;21.30;;;11.30;99.90;;;;;;4976297;28;20050;-78
2021/10/05 05:02:54;;;;;;;23.50;21.90;;;11.40;99.90;;;;;;4976002;28;20058;-79
2021/10/05 05:05:24;;;;;;;22.38;20.77;;;11.40;99.90;;;;;;4976297;28;20046;-79
2021/10/05 05:07:50;;;;;;;21.73;20.15;;;11.30;99.90;;;;;;4976277;28;20120;-78
2021/10/05 05:10:16;;;;;;;21.90;20.42;;;11.30;99.90;;;;;;4994510;28;20054;-77
2021/10/05 05:12:42;;;;;;;22.60;20.98;;;11.30;99.90;;;;;;4976982;28;20037;-78
2021/10/05 05:15:09;;;;;;;20.75;19.40;;;11.30;99.90;;;;;;4982273;28;20045;-78
2021/10/05 05:17:35;;;;;;;21.60;20.10;;;11.30;99.90;;;;;;4975205;28;20594;-78
2021/10/05 05:20:01;;;;;;;23.00;21.40;;;11.30;99.90;;;;;;4976288;28;20049;-78
2021/10/05 05:22:27;;;;;;;23.55;21.95;;;11.30;99.90;;;;;;4975523;28;20034;-78
2021/10/05 05:24:53;;;;;;;22.95;21.38;;;11.30;99.90;;;;;;4976644;28;20041;-78
2021/10/05 05:27:21;;;;;;;25.25;23.15;;;11.30;99.90;;;;;;4975685;28;20035;-78
2021/10/05 05:29:47;;;;;;;26.63;24.55;;;11.30;99.90;;;;;;4976382;28;20035;-78
2021/10/05 05:32:14;;;;;;;25.90;24.30;;;11.30;99.90;;;;;;4976127;28;20035;-77
2021/10/05 05:34:40;;;;;;;26.83;25.02;;;11.30;99.90;;;;;;4975661;28;20034;-77
2021/10/05 05:37:06;;;;;;;27.05;25.20;;;11.30;99.90;;;;;;4976020;28;20624;-78
2021/10/05 05:39:39;;;;;;;28.73;26.42;;;11.30;99.90;;;;;;4975553;28;20133;-78
2021/10/05 05:42:10;;;;;;;27.90;26.08;;;11.30;99.90;;;;;;4975888;28;20031;-76
2021/10/05 05:44:40;;;;;;;27.10;25.23;;;11.30;99.90;;;;;;4975285;28;20039;-78
2021/10/05 05:47:07;;;;;;;27.57;25.67;;;11.30;99.90;;;;;;4975963;28;20042;-78
2021/10/05 05:49:33;;;;;;;24.77;22.95;;;11.40;99.90;;;;;;4975549;28;20286;-77
2021/10/05 05:51:59;;;;;;;25.58;23.80;;;11.30;99.90;;;;;;4975954;28;20046;-78
2021/10/05 05:54:25;;;;;;;25.83;23.88;;;11.40;99.90;;;;;;4975011;28;20523;-78
2021/10/05 05:56:52;;;;;;;25.73;23.95;;;11.40;99.90;;;;;;4975198;28;20039;-78
2021/10/05 05:59:19;;;;;;;24.52;22.67;;;11.40;99.90;;;;;;4974571;28;20049;-78
2021/10/05 06:01:45;;;;;;;21.42;19.95;;;11.40;99.90;;;;;;4974746;28;20043;-78
2021/10/05 06:04:11;;;;;;;20.20;18.83;;;11.40;99.90;;;;;;4975689;28;20042;-77
2021/10/05 06:06:37;;;;;;;20.60;18.75;;;11.40;99.90;;;;;;4975037;28;20107;-77
2021/10/05 06:09:04;;;;;;;20.13;18.58;;;11.30;99.90;;;;;;4978192;28;20034;-76
2021/10/05 06:11:36;;;;;;;17.75;16.58;;;11.30;99.90;;;;;;4973773;28;20045;-80
2021/10/05 06:14:02;;;;;;;18.33;16.88;;;11.30;99.90;;;;;;4975558;28;20345;-80
2021/10/05 06:16:29;;;;;;;16.13;14.82;;;11.30;99.90;;;;;;4974872;28;20068;-79
2021/10/05 06:18:55;;;;;;;17.40;16.00;;;11.30;99.90;;;;;;4957733;28;20047;-80
2021/10/05 06:21:21;;;;;;;16.38;15.32;;;11.40;99.90;;;;;;4986246;28;20038;-80
2021/10/05 06:23:48;;;;;;;16.73;15.45;;;11.40;99.90;;;;;;4972202;28;20042;-80
2021/10/05 06:26:14;;;;;;;17.33;16.13;;;11.40;99.90;;;;;;4971716;28;20034;-79
2021/10/05 06:28:42;;;;;;;19.20;17.83;;;11.40;99.90;;;;;;4974799;28;20452;-80
2021/10/05 06:31:09;;;;;;;19.77;18.48;;;11.40;99.90;;;;;;4964236;28;20038;-78
2021/10/05 06:33:35;;;;;;;19.67;18.13;;;11.50;99.90;;;;;;4981208;28;20042;-79
2021/10/05 06:36:07;;;;;;;18.42;17.13;;;11.50;99.90;;;;;;4974624;28;20042;-79
2021/10/05 06:38:34;;;;;;;18.02;16.73;;;11.50;99.90;;;;;;4974724;28;20046;-79
2021/10/05 06:41:02;;;;;;;19.08;17.58;;;11.50;99.90;;;;;;4975576;28;20480;-79
2021/10/05 06:43:28;;;;;;;20.50;19.10;;;11.60;99.90;;;;;;4974872;28;20046;-81
2021/10/05 06:45:58;;;;;;;21.15;19.67;;;11.60;99.90;;;;;;4975221;28;20365;-78
2021/10/05 06:48:27;;;;;;;21.55;20.05;;;11.60;99.90;;;;;;4985039;28;20041;-79
2021/10/05 06:50:53;;;;;;;22.77;21.10;;;11.60;99.90;;;;;;4993053;28;20029;-79
2021/10/05 06:53:22;;;;;;;23.80;22.13;;;11.70;99.90;;;;;;4985189;28;20031;-85
2021/10/05 06:55:50;;;;;;;24.50;22.73;;;11.80;99.90;;;;;;4968452;28;20042;-82
2021/10/05 06:58:17;;;;;;;25.50;23.60;;;11.90;99.90;;;;;;4970559;28;20054;-82
2021/10/05 07:00:44;;;;;;;25.70;23.90;;;12.10;99.90;;;;;;4941693;28;20042;-82
2021/10/05 07:03:10;;;;;;;25.00;23.20;;;12.10;99.90;;;;;;4954843;28;20043;-82
2021/10/05 07:05:38;;;;;;;28.15;25.85;;;12.10;99.90;;;;;;4971507;28;20034;-82
2021/10/05 07:08:06;;;;;;;28.98;26.73;;;12.30;99.90;;;;;;4974632;28;20391;-83
2021/10/05 07:10:35;;;;;;;29.70;27.13;;;12.40;99.90;;;;;;4965707;28;20043;-83
2021/10/05 07:13:02;;;;;;;27.95;25.70;;;12.60;99.90;;;;;;4992674;28;20038;-82
2021/10/05 07:15:28;;;;;;;26.23;23.92;;;12.90;99.90;;;;;;4967108;28;20046;-82
2021/10/05 07:17:58;;;;;;;22.83;21.15;;;13.00;99.90;;;;;;4997036;28;20038;-82
2021/10/05 07:20:29;;;;;;;20.30;18.70;;;13.10;99.90;;;;;;4977490;28;20049;-82
2021/10/05 07:22:56;;;;;;;16.67;15.48;;;13.10;99.90;;;;;;4966135;28;20053;-81
2021/10/05 07:25:22;;;;;;;16.30;15.07;;;13.10;99.90;;;;;;4966716;28;20395;-81
2021/10/05 07:27:52;;;;;;;15.98;14.77;;;13.20;99.90;;;;;;4985163;28;20494;-82
2021/10/05 07:30:23;;;;;;;14.82;13.60;;;13.20;99.90;;;;;;4983750;28;20034;-82
2021/10/05 07:32:54;;;;;;;13.23;12.23;;;13.20;99.90;;;;;;4985870;28;20375;-83
2021/10/05 07:35:21;;;;;;;10.98;10.23;;;13.20;99.90;;;;;;4972985;28;20045;-84
2021/10/05 07:37:47;;;;;;;10.65;9.85;;;13.10;99.90;;;;;;4988271;28;20042;-83
2021/10/05 07:40:16;;;;;;;11.32;10.40;;;12.90;99.90;;;;;;4973409;28;20046;-82
2021/10/05 07:42:43;;;;;;;9.18;8.48;;;12.90;99.90;;;;;;4958788;28;20065;-83
2021/10/05 07:45:10;;;;;;;9.68;8.77;;;12.90;99.90;;;;;;4974014;28;20391;-83
2021/10/05 07:47:38;;;;;;;9.13;8.48;;;12.70;99.90;;;;;;4973203;28;20030;-82
2021/10/05 07:50:08;;;;;;;8.98;8.27;;;12.80;99.90;;;;;;4972452;28;20039;-82
2021/10/05 07:52:34;;;;;;;10.68;9.70;;;12.80;99.90;;;;;;4947227;28;20043;-83
2021/10/05 07:55:00;;;;;;;10.30;9.50;;;12.90;99.90;;;;;;4972391;28;20038;-83
2021/10/05 07:57:27;;;;;;;11.52;10.52;;;13.00;99.90;;;;;;4973409;28;20134;-85
2021/10/05 07:59:53;;;;;;;12.32;10.60;;;13.00;99.90;;;;;;4973652;28;20034;-84
2021/10/05 08:02:19;;;;;;;9.35;8.65;;;13.00;99.90;;;;;;4970987;28;20042;-84
2021/10/05 08:04:46;;;;;;;10.00;9.20;;;12.90;99.90;;;;;;4956346;28;20046;-84
2021/10/05 08:07:12;;;;;;;10.70;9.90;;;13.10;99.90;;;;;;4957007;28;20046;-84
2021/10/05 08:09:41;;;;;;;9.98;9.23;;;13.20;99.90;;;;;;4956612;28;20042;-84
2021/10/05 08:12:10;;;;;;;9.20;8.50;;;13.10;99.90;;;;;;4992526;28;20035;-84
2021/10/05 08:14:39;;;;;;;13.63;9.38;;;13.10;99.90;;;;;;4972695;28;20039;-84
2021/10/05 08:17:05;;;;;;;8.38;7.68;;;13.20;99.90;;;;;;4977929;28;20038;-76
2021/10/05 08:19:35;;;;;;;8.38;7.50;;;13.30;99.90;;;;;;4983717;28;20038;-84
2021/10/05 08:22:01;;;;;;;7.30;6.60;;;13.40;99.90;;;;;;4981386;28;20031;-85
2021/10/05 08:24:27;;;;;;;6.95;6.30;;;13.40;99.90;;;;;;4983913;28;20051;-85
2021/10/05 08:26:54;;;;;;;7.53;6.93;;;13.30;99.90;;;;;;4974086;28;20035;-85
2021/10/05 08:29:20;;;;;;;7.72;7.13;;;13.20;99.90;;;;;;4969027;28;20058;-84
2021/10/05 08:31:49;;;;;;;8.40;7.50;;;13.20;99.90;;;;;;4994055;28;20045;-84
2021/10/05 08:34:20;;;;;;;8.45;7.82;;;13.20;99.90;;;;;;4976261;28;20050;-84
2021/10/05 08:36:48;;;;;;;10.35;9.30;;;13.30;99.90;;;;;;4960670;28;20057;-83
2021/10/05 08:39:16;;;;;;;8.65;8.05;;;13.40;99.90;;;;;;4992743;28;20030;-83
2021/10/05 08:41:44;;;;;;;9.18;8.38;;;13.50;99.90;;;;;;4976971;28;20034;-84
2021/10/05 08:44:11;;;;;;;9.25;8.32;;;13.50;99.90;;;;;;4978079;28;20043;-84
2021/10/05 08:46:38;;;;;;;8.25;7.22;;;13.50;99.90;;;;;;4968574;28;20042;-82
2021/10/05 08:49:06;;;;;;;11.73;10.60;;;13.30;99.90;;;;;;4987049;28;20035;-83
2021/10/05 08:51:33;;;;;;;10.93;10.02;;;13.40;99.90;;;;;;4972301;28;20030;-82
2021/10/05 08:53:59;;;;;;;11.77;10.88;;;13.40;99.90;;;;;;4990801;28;20038;-84
2021/10/05 08:56:27;;;;;;;10.73;9.82;;;13.30;99.90;;;;;;4978548;28;20035;-82
2021/10/05 08:58:53;;;;;;;11.88;10.77;;;13.30;99.90;;;;;;4987864;28;20045;-79
2021/10/05 09:01:19;;;;;;;12.38;11.38;;;13.20;99.90;;;;;;4982090;28;20054;-84
2021/10/05 09:03:54;;;;;;;12.20;11.10;;;13.30;99.90;;;;;;4980716;28;20049;-82
2021/10/05 09:06:22;;;;;;;12.13;10.88;;;13.30;99.90;;;;;;4988620;28;20044;-83
2021/10/05 09:08:51;;;;;;;10.73;9.80;;;13.30;99.90;;;;;;4998596;28;20041;-88
2021/10/05 09:11:19;;;;;;;10.02;9.25;;;13.40;99.90;;;;;;4975105;28;20467;-85
2021/10/05 09:13:50;;;;;;;8.95;8.30;;;13.40;99.90;;;;;;4979702;28;20042;-82
2021/10/05 09:16:21;;;;;;;11.15;10.07;;;13.40;99.90;;;;;;4983196;28;20480;-87
2021/10/05 09:18:54;;;;;;;9.43;8.68;;;13.40;99.90;;;;;;4945778;28;20038;-84
2021/10/05 09:21:21;;;;;;;8.35;7.78;;;13.30;99.90;;;;;;4977921;28;20034;-87
2021/10/05 09:24:04;;;;;;;8.10;7.35;;;13.40;99.90;;;;;;4978839;28;20031;-91
2021/10/05 09:26:52;;;;;;;8.75;7.95;;;13.30;99.90;;;;;;4961890;28;20043;-89
2021/10/05 09:29:18;;;;;;;10.48;9.63;;;13.20;99.90;;;;;;4984987;28;20417;-91
2021/10/05 09:32:03;;;;;;;10.38;9.40;;;13.20;99.90;;;;;;4999189;28;20044;-88
2021/10/05 09:34:54;;;;;;;11.27;10.48;;;13.50;99.90;;;;;;4979131;28;20026;-90
2021/10/05 09:37:25;;;;;;;13.68;11.48;;;13.70;99.90;;;;;;4987399;28;20038;-88
2021/10/05 09:40:11;;;;;;;13.18;11.98;;;14.00;99.90;;;;;;4960245;28;20047;-88
2021/10/05 09:42:45;;;;;;;11.43;10.48;;;14.30;99.90;;;;;;4965846;28;20031;-89
2021/10/05 09:45:17;;;;;;;9.60;8.80;;;14.80;99.90;;;;;;4982267;28;20034;-88
2021/10/05 09:47:49;;;;;;;10.05;9.07;;;15.00;99.90;;;;;;4990347;28;20057;-88
2021/10/05 09:50:32;;;;;;;10.15;9.35;;;14.90;99.90;;;;;;4967526;28;20031;-84
2021/10/05 09:53:01;;;;;;;11.23;10.23;;;14.90;99.90;;;;;;4979967;28;20030;-86
2021/10/05 09:55:35;;;;;;;11.35;10.25;;;14.90;99.90;;;;;;4982072;28;20058;-86
2021/10/05 09:58:02;;;;;;;12.15;11.10;;;14.90;99.90;;;;;;4962318;28;20384;-85
2021/10/05 10:00:31;;;;;;;12.65;11.60;;;15.00;99.90;;;;;;4981278;28;20038;-85
2021/10/05 10:02:58;;;;;;;11.93;10.68;;;15.00;99.90;;;;;;4969486;28;20058;-86
2021/10/05 10:05:31;;;;;;;10.20;8.88;;;14.90;99.90;;;;;;4983804;28;20031;-85
2021/10/05 10:07:59;;;;;;;8.32;7.65;;;14.90;99.90;;;;;;5009089;28;20509;-85
2021/10/05 10:10:29;;;;;;;9.80;7.75;;;14.70;99.90;;;;;;4972556;28;20034;-84
2021/10/05 10:13:04;;;;;;;7.72;7.03;;;14.60;99.90;;;;;;4990221;28;20388;-86
2021/10/05 10:15:37;;;;;;;7.50;6.80;;;14.60;99.90;;;;;;4959370;28;20047;-87
2021/10/05 10:18:06;;;;;;;7.57;6.88;;;14.60;99.90;;;;;;4963277;28;20039;-86
2021/10/05 10:20:40;;;;;;;8.88;8.18;;;14.50;99.90;;;;;;4968185;28;20030;-84
2021/10/05 10:23:21;;;;;;;9.70;8.80;;;14.60;99.90;;;;;;4980002;28;20034;-86
2021/10/05 10:26:18;;;;;;;7.95;7.18;;;14.80;99.90;;;;;;4977899;28;20034;-87
2021/10/05 10:28:51;;;;;;;7.10;6.50;;;14.90;99.90;;;;;;4971501;28;20034;-85
2021/10/05 10:31:39;;;;;;;6.20;5.63;;;15.10;99.90;;;;;;4964305;28;20039;-85
2021/10/05 10:34:07;;;;;;;5.13;4.78;;;15.20;99.90;;;;;;4954750;28;20058;-85
2021/10/05 10:36:41;;;;;;;7.82;5.60;;;15.30;99.90;;;;;;4966031;28;20058;-86
2021/10/05 10:39:18;;;;;;;4.88;4.53;;;15.30;99.90;;;;;;4959958;28;20066;-77
2021/10/05 10:42:04;;;;;;;5.22;3.80;;;15.30;99.90;;;;;;4976781;28;20471;-79
2021/10/05 10:44:40;;;;;;;5.45;4.65;;;15.30;99.90;;;;;;4979373;28;20415;-77
2021/10/05 10:47:17;;;;;;;4.50;4.20;;;15.40;99.90;;;;;;4975517;28;20046;-74
2021/10/05 10:50:02;;;;;;;5.68;5.18;;;15.50;99.90;;;;;;4990537;28;20030;-77
2021/10/05 10:52:43;;;;;;;5.40;4.72;;;15.40;99.90;;;;;;4976693;28;20042;-79
2021/10/05 10:55:17;;;;;;;5.20;4.80;;;15.40;99.90;;;;;;4960682;28;20411;-77
2021/10/05 10:58:01;;;;;;;3.97;3.58;;;15.30;99.90;;;;;;4978024;28;20126;-76
2021/10/05 11:00:30;;;;;;;3.90;3.53;;;15.30;99.90;;;;;;4977865;28;20050;-78
2021/10/05 11:03:03;;;;;;;3.13;2.92;;;15.30;99.90;;;;;;4977601;28;20050;-77
2021/10/05 11:05:32;;;;;;;4.05;2.88;;;15.30;99.90;;;;;;4997821;28;20034;-78
2021/10/05 11:07:59;;;;;;;5.32;4.82;;;15.30;99.90;;;;;;4973191;28;20061;-77
2021/10/05 11:10:28;;;;;;;6.35;4.00;;;15.30;99.90;;;;;;4980162;28;20031;-79
2021/10/05 11:13:00;;;;;;;3.30;3.03;;;15.30;99.90;;;;;;4989615;28;20038;-78
2021/10/05 11:15:45;;;;;;;3.35;3.15;;;15.50;99.90;;;;;;4980235;28;20035;-81
2021/10/05 11:18:13;;;;;;;3.97;3.22;;;15.70;99.90;;;;;;4982114;28;20039;-77
2021/10/05 11:20:49;;;;;;;3.25;2.60;;;16.00;99.90;;;;;;4971157;28;20038;-77
2021/10/05 11:23:16;;;;;;;2.30;2.10;;;16.20;99.00;;;;;;4977938;28;20042;-78
2021/10/05 11:26:03;;;;;;;2.58;1.95;;;16.50;98.10;;;;;;4992496;28;20050;-78
2021/10/05 11:28:34;;;;;;;1.85;1.15;;;16.50;94.80;;;;;;4979718;28;20053;-77
2021/10/05 11:31:03;;;;;;;6.05;1.95;;;16.60;94.90;;;;;;4992426;28;20387;-78
2021/10/05 11:33:36;;;;;;;1.20;1.10;;;16.50;93.50;;;;;;4977457;28;20031;-78
2021/10/05 11:36:12;;;;;;;2.22;1.67;;;16.40;92.90;;;;;;4978861;28;20045;-77
2021/10/05 11:38:47;;;;;;;2.95;1.45;;;16.60;93.10;;;;;;4987527;28;20035;-80
2021/10/05 11:41:17;;;;;;;1.08;0.88;;;16.50;92.00;;;;;;4977094;28;20396;-78
2021/10/05 11:43:46;;;;;;;2.15;1.45;;;16.20;90.90;;;;;;4972499;28;20045;-77
2021/10/05 11:46:21;;;;;;;1.05;0.98;;;16.00;92.50;;;;;;4975502;28;20035;-77
2021/10/05 11:48:49;;;;;;;5.18;1.23;;;15.80;92.90;;;;;;4975508;28;20031;-79
2021/10/05 11:51:21;;;;;;;2.47;1.23;;;15.80;92.80;;;;;;4960324;28;20053;-77
2021/10/05 11:53:49;;;;;;;1.58;1.13;;;15.80;93.20;;;;;;4963788;28;20034;-77
2021/10/05 11:56:18;;;;;;;1.20;1.10;;;15.90;93.10;;;;;;4977858;28;20038;-77
2021/10/05 11:58:50;;;;;;;1.65;1.55;;;16.20;92.80;;;;;;4977277;28;20042;-78
2021/10/05 12:01:22;;;;;;;0.85;0.77;;;16.40;91.40;;;;;;4979558;28;20034;-77
2021/10/05 12:03:51;;;;;;;1.77;1.23;;;16.40;91.10;;;;;;4956765;28;20038;-75
2021/10/05 12:06:38;;;;;;;1.10;0.75;;;16.60;90.80;;;;;;4973931;28;20038;-77
2021/10/05 12:09:05;;;;;;;1.00;0.60;;;16.60;88.80;;;;;;4974630;28;20031;-76
2021/10/05 12:11:43;;;;;;;;;;;16.70;88.10;;;;;;4964764;28;20061;-76
2021/10/05 12:14:10;;;;;;;0.63;0.57;;;17.00;88.10;;;;;;4985799;28;20274;-75
2021/10/05 12:16:52;;;;;;;0.75;0.55;;;17.20;85.30;;;;;;4961561;28;20038;-75
2021/10/05 12:19:30;;;;;;;1.30;0.65;;;17.40;83.20;;;;;;4956865;28;20395;-77
2021/10/05 12:21:58;;;;;;;0.82;0.60;;;17.40;83.20;;;;;;4973271;28;20035;-75
2021/10/05 12:24:34;;;;;;;0.60;0.52;;;17.40;82.80;;;;;;4973098;28;20035;-75
2021/10/05 12:27:00;;;;;;;2.33;0.90;;;17.40;83.50;;;;;;4972806;28;20035;-78
2021/10/05 12:29:27;;;;;;;1.75;0.57;;;17.40;79.70;;;;;;4972907;28;20038;-81
2021/10/05 12:31:59;;;;;;;0.45;0.40;;;17.50;79.90;;;;;;4954426;28;20103;-76
2021/10/05 12:34:38;;;;;;;1.42;0.70;;;17.60;79.70;;;;;;4972947;28;20341;-76
2021/10/05 12:37:06;;;;;;;1.20;0.57;;;17.70;79.90;;;;;;4973598;28;20050;-76
2021/10/05 12:39:33;;;;;;;2.30;0.55;;;17.70;79.20;;;;;;4963030;28;20387;-76
2021/10/05 12:42:01;;;;;;;1.52;0.60;;;18.00;79.60;;;;;;4973355;28;20046;-76
2021/10/05 12:44:31;;;;;;;0.77;0.40;;;18.10;80.70;;;;;;4972867;28;20383;-77
2021/10/05 12:47:00;;;;;;;1.03;0.60;;;18.30;78.40;;;;;;4972652;28;20057;-79